sensor_id;sensor_type;location;lat;lon;timestamp;P1;durP1;ratioP1;P2;durP2;ratioP2
47329;SDS011;33060;50.178;7.570;2023-04-06T00:00:48;5.87;;;4.40;;
47329;SDS011;33060;50.178;7.570;2023-04-06T00:03:15;6.17;;;4.50;;
47329;SDS011;33060;50.178;7.570;2023-04-06T00:05:42;6.10;;;3.80;;
47329;SDS011;33060;50.178;7.570;2023-04-06T00:08:09;4.73;;;4.20;;
47329;SDS011;33060;50.178;7.570;2023-04-06T00:10:36;8.33;;;3.93;;
47329;SDS011;33060;50.178;7.570;2023-04-06T00:13:03;5.40;;;4.10;;
47329;SDS011;33060;50.178;7.570;2023-04-06T00:15:30;6.97;;;4.57;;
47329;SDS011;33060;50.178;7.570;2023-04-06T00:17:56;5.47;;;4.23;;
47329;SDS011;33060;50.178;7.570;2023-04-06T00:20:23;5.33;;;4.47;;
47329;SDS011;33060;50.178;7.570;2023-04-06T00:22:50;4.70;;;4.10;;
47329;SDS011;33060;50.178;7.570;2023-04-06T00:25:17;6.33;;;4.53;;
47329;SDS011;33060;50.178;7.570;2023-04-06T00:27:44;4.90;;;4.20;;
47329;SDS011;33060;50.178;7.570;2023-04-06T00:30:10;5.27;;;4.47;;
47329;SDS011;33060;50.178;7.570;2023-04-06T00:32:37;5.87;;;4.43;;
47329;SDS011;33060;50.178;7.570;2023-04-06T00:35:04;5.93;;;4.40;;
47329;SDS011;33060;50.178;7.570;2023-04-06T00:37:32;5.57;;;4.40;;
47329;SDS011;33060;50.178;7.570;2023-04-06T00:39:59;5.37;;;4.03;;
47329;SDS011;33060;50.178;7.570;2023-04-06T00:42:26;4.77;;;4.27;;
47329;SDS011;33060;50.178;7.570;2023-04-06T00:44:56;5.13;;;4.43;;
47329;SDS011;33060;50.178;7.570;2023-04-06T00:47:25;5.33;;;4.20;;
47329;SDS011;33060;50.178;7.570;2023-04-06T00:49:53;5.37;;;4.17;;
47329;SDS011;33060;50.178;7.570;2023-04-06T00:52:20;7.97;;;4.60;;
47329;SDS011;33060;50.178;7.570;2023-04-06T00:54:48;5.37;;;4.40;;
47329;SDS011;33060;50.178;7.570;2023-04-06T00:57:18;5.23;;;3.90;;
47329;SDS011;33060;50.178;7.570;2023-04-06T00:59:51;5.90;;;4.30;;
47329;SDS011;33060;50.178;7.570;2023-04-06T01:02:18;6.93;;;4.17;;
47329;SDS011;33060;50.178;7.570;2023-04-06T01:04:55;5.67;;;3.70;;
47329;SDS011;33060;50.178;7.570;2023-04-06T01:07:43;4.87;;;4.00;;
47329;SDS011;33060;50.178;7.570;2023-04-06T01:10:26;7.13;;;4.20;;
47329;SDS011;33060;50.178;7.570;2023-04-06T01:13:08;6.47;;;3.93;;
47329;SDS011;33060;50.178;7.570;2023-04-06T01:16:00;4.83;;;3.70;;
47329;SDS011;33060;50.178;7.570;2023-04-06T01:18:51;4.97;;;3.97;;
47329;SDS011;33060;50.178;7.570;2023-04-06T01:21:22;7.43;;;4.20;;
47329;SDS011;33060;50.178;7.570;2023-04-06T01:24:10;5.73;;;3.97;;
47329;SDS011;33060;50.178;7.570;2023-04-06T01:26:53;5.47;;;4.17;;
47329;SDS011;33060;50.178;7.570;2023-04-06T01:29:20;4.53;;;3.73;;
47329;SDS011;33060;50.178;7.570;2023-04-06T01:31:47;5.37;;;4.03;;
47329;SDS011;33060;50.178;7.570;2023-04-06T01:34:14;5.77;;;4.60;;
47329;SDS011;33060;50.178;7.570;2023-04-06T01:36:41;6.97;;;4.70;;
47329;SDS011;33060;50.178;7.570;2023-04-06T01:39:20;6.50;;;4.47;;
47329;SDS011;33060;50.178;7.570;2023-04-06T01:41:47;6.47;;;4.70;;
47329;SDS011;33060;50.178;7.570;2023-04-06T01:44:18;5.83;;;4.73;;
47329;SDS011;33060;50.178;7.570;2023-04-06T01:46:51;7.00;;;4.70;;
47329;SDS011;33060;50.178;7.570;2023-04-06T01:49:18;5.63;;;4.47;;
47329;SDS011;33060;50.178;7.570;2023-04-06T01:51:50;7.60;;;4.90;;
47329;SDS011;33060;50.178;7.570;2023-04-06T01:54:16;5.50;;;4.20;;
47329;SDS011;33060;50.178;7.570;2023-04-06T01:57:10;6.53;;;4.57;;
47329;SDS011;33060;50.178;7.570;2023-04-06T01:59:44;6.60;;;4.67;;
47329;SDS011;33060;50.178;7.570;2023-04-06T02:02:30;5.33;;;4.33;;
47329;SDS011;33060;50.178;7.570;2023-04-06T02:05:01;6.17;;;4.80;;
47329;SDS011;33060;50.178;7.570;2023-04-06T02:07:28;5.93;;;4.93;;
47329;SDS011;33060;50.178;7.570;2023-04-06T02:09:55;7.17;;;4.90;;
47329;SDS011;33060;50.178;7.570;2023-04-06T02:12:33;6.47;;;4.63;;
47329;SDS011;33060;50.178;7.570;2023-04-06T02:15:01;5.73;;;4.80;;
47329;SDS011;33060;50.178;7.570;2023-04-06T02:17:28;5.87;;;4.50;;
47329;SDS011;33060;50.178;7.570;2023-04-06T02:19:55;7.70;;;4.93;;
47329;SDS011;33060;50.178;7.570;2023-04-06T02:22:21;6.57;;;4.83;;
47329;SDS011;33060;50.178;7.570;2023-04-06T02:24:48;6.50;;;4.60;;
47329;SDS011;33060;50.178;7.570;2023-04-06T02:27:14;5.27;;;4.40;;
47329;SDS011;33060;50.178;7.570;2023-04-06T02:29:45;8.40;;;4.90;;
47329;SDS011;33060;50.178;7.570;2023-04-06T02:32:14;5.77;;;4.50;;
47329;SDS011;33060;50.178;7.570;2023-04-06T02:34:41;7.60;;;4.93;;
47329;SDS011;33060;50.178;7.570;2023-04-06T02:37:07;7.13;;;4.80;;
47329;SDS011;33060;50.178;7.570;2023-04-06T02:39:35;6.87;;;5.10;;
47329;SDS011;33060;50.178;7.570;2023-04-06T02:42:04;6.57;;;5.23;;
47329;SDS011;33060;50.178;7.570;2023-04-06T02:44:31;6.60;;;5.03;;
47329;SDS011;33060;50.178;7.570;2023-04-06T02:46:57;7.20;;;5.13;;
47329;SDS011;33060;50.178;7.570;2023-04-06T02:49:25;7.93;;;5.20;;
47329;SDS011;33060;50.178;7.570;2023-04-06T02:51:54;8.67;;;5.60;;
47329;SDS011;33060;50.178;7.570;2023-04-06T02:54:25;6.80;;;5.40;;
47329;SDS011;33060;50.178;7.570;2023-04-06T02:56:52;6.77;;;5.57;;
47329;SDS011;33060;50.178;7.570;2023-04-06T02:59:20;7.77;;;5.20;;
47329;SDS011;33060;50.178;7.570;2023-04-06T03:02:00;7.07;;;5.27;;
47329;SDS011;33060;50.178;7.570;2023-04-06T03:04:26;6.70;;;5.30;;
47329;SDS011;33060;50.178;7.570;2023-04-06T03:06:55;7.10;;;5.40;;
47329;SDS011;33060;50.178;7.570;2023-04-06T03:09:32;7.87;;;5.57;;
47329;SDS011;33060;50.178;7.570;2023-04-06T03:12:00;7.80;;;4.93;;
47329;SDS011;33060;50.178;7.570;2023-04-06T03:14:27;7.03;;;5.33;;
47329;SDS011;33060;50.178;7.570;2023-04-06T03:16:55;7.00;;;5.20;;
47329;SDS011;33060;50.178;7.570;2023-04-06T03:19:23;8.03;;;5.57;;
47329;SDS011;33060;50.178;7.570;2023-04-06T03:21:50;8.67;;;5.83;;
47329;SDS011;33060;50.178;7.570;2023-04-06T03:24:19;6.90;;;5.37;;
47329;SDS011;33060;50.178;7.570;2023-04-06T03:26:46;8.37;;;5.90;;
47329;SDS011;33060;50.178;7.570;2023-04-06T03:29:13;7.50;;;5.60;;
47329;SDS011;33060;50.178;7.570;2023-04-06T03:31:40;7.90;;;5.77;;
47329;SDS011;33060;50.178;7.570;2023-04-06T03:34:20;9.60;;;5.70;;
47329;SDS011;33060;50.178;7.570;2023-04-06T03:36:47;7.07;;;5.20;;
47329;SDS011;33060;50.178;7.570;2023-04-06T03:39:29;8.77;;;5.90;;
47329;SDS011;33060;50.178;7.570;2023-04-06T03:41:57;7.17;;;5.70;;
47329;SDS011;33060;50.178;7.570;2023-04-06T03:44:35;7.30;;;5.70;;
47329;SDS011;33060;50.178;7.570;2023-04-06T03:47:03;11.57;;;8.03;;
47329;SDS011;33060;50.178;7.570;2023-04-06T03:49:29;10.17;;;7.40;;
47329;SDS011;33060;50.178;7.570;2023-04-06T03:51:57;9.20;;;6.43;;
47329;SDS011;33060;50.178;7.570;2023-04-06T03:54:24;9.07;;;6.33;;
47329;SDS011;33060;50.178;7.570;2023-04-06T03:56:50;11.50;;;8.03;;
47329;SDS011;33060;50.178;7.570;2023-04-06T03:59:17;10.70;;;8.00;;
47329;SDS011;33060;50.178;7.570;2023-04-06T04:01:44;8.43;;;6.37;;
47329;SDS011;33060;50.178;7.570;2023-04-06T04:04:11;9.70;;;6.27;;
47329;SDS011;33060;50.178;7.570;2023-04-06T04:06:37;9.07;;;6.20;;
47329;SDS011;33060;50.178;7.570;2023-04-06T04:09:06;9.80;;;5.97;;
47329;SDS011;33060;50.178;7.570;2023-04-06T04:11:33;7.50;;;5.53;;
47329;SDS011;33060;50.178;7.570;2023-04-06T04:14:01;8.03;;;6.00;;
47329;SDS011;33060;50.178;7.570;2023-04-06T04:16:27;8.00;;;5.43;;
47329;SDS011;33060;50.178;7.570;2023-04-06T04:18:55;9.70;;;6.27;;
47329;SDS011;33060;50.178;7.570;2023-04-06T04:21:24;8.07;;;5.97;;
47329;SDS011;33060;50.178;7.570;2023-04-06T04:23:52;8.53;;;6.30;;
47329;SDS011;33060;50.178;7.570;2023-04-06T04:26:18;9.10;;;6.20;;
47329;SDS011;33060;50.178;7.570;2023-04-06T04:28:46;9.80;;;6.70;;
47329;SDS011;33060;50.178;7.570;2023-04-06T04:31:13;7.30;;;5.67;;
47329;SDS011;33060;50.178;7.570;2023-04-06T04:33:41;7.73;;;5.60;;
47329;SDS011;33060;50.178;7.570;2023-04-06T04:36:12;9.67;;;6.40;;
47329;SDS011;33060;50.178;7.570;2023-04-06T04:38:42;9.27;;;6.53;;
47329;SDS011;33060;50.178;7.570;2023-04-06T04:41:09;8.73;;;6.13;;
47329;SDS011;33060;50.178;7.570;2023-04-06T04:43:39;8.20;;;6.03;;
47329;SDS011;33060;50.178;7.570;2023-04-06T04:46:05;7.70;;;6.20;;
47329;SDS011;33060;50.178;7.570;2023-04-06T04:48:37;10.93;;;6.57;;
47329;SDS011;33060;50.178;7.570;2023-04-06T04:51:06;8.10;;;6.07;;
47329;SDS011;33060;50.178;7.570;2023-04-06T04:54:02;10.70;;;6.60;;
47329;SDS011;33060;50.178;7.570;2023-04-06T04:56:31;11.17;;;6.33;;
47329;SDS011;33060;50.178;7.570;2023-04-06T04:59:17;7.80;;;5.97;;
47329;SDS011;33060;50.178;7.570;2023-04-06T05:01:51;9.10;;;6.73;;
47329;SDS011;33060;50.178;7.570;2023-04-06T05:04:27;8.77;;;6.57;;
47329;SDS011;33060;50.178;7.570;2023-04-06T05:07:04;11.07;;;6.17;;
47329;SDS011;33060;50.178;7.570;2023-04-06T05:09:34;10.37;;;7.20;;
47329;SDS011;33060;50.178;7.570;2023-04-06T05:12:01;8.90;;;6.53;;
47329;SDS011;33060;50.178;7.570;2023-04-06T05:14:33;10.07;;;6.37;;
47329;SDS011;33060;50.178;7.570;2023-04-06T05:17:02;9.30;;;6.67;;
47329;SDS011;33060;50.178;7.570;2023-04-06T05:19:29;9.10;;;7.00;;
47329;SDS011;33060;50.178;7.570;2023-04-06T05:21:56;9.73;;;6.80;;
47329;SDS011;33060;50.178;7.570;2023-04-06T05:24:23;8.53;;;6.60;;
47329;SDS011;33060;50.178;7.570;2023-04-06T05:26:50;9.27;;;6.57;;
47329;SDS011;33060;50.178;7.570;2023-04-06T05:29:21;9.37;;;6.90;;
47329;SDS011;33060;50.178;7.570;2023-04-06T05:31:48;8.77;;;6.60;;
47329;SDS011;33060;50.178;7.570;2023-04-06T05:34:15;8.03;;;6.60;;
47329;SDS011;33060;50.178;7.570;2023-04-06T05:36:42;8.67;;;6.70;;
47329;SDS011;33060;50.178;7.570;2023-04-06T05:39:16;12.63;;;7.67;;
47329;SDS011;33060;50.178;7.570;2023-04-06T05:41:47;8.20;;;6.50;;
47329;SDS011;33060;50.178;7.570;2023-04-06T05:44:21;8.80;;;6.67;;
47329;SDS011;33060;50.178;7.570;2023-04-06T05:46:57;10.23;;;7.10;;
47329;SDS011;33060;50.178;7.570;2023-04-06T05:49:24;10.37;;;6.73;;
47329;SDS011;33060;50.178;7.570;2023-04-06T05:51:51;8.33;;;6.33;;
47329;SDS011;33060;50.178;7.570;2023-04-06T05:54:19;10.87;;;6.90;;
47329;SDS011;33060;50.178;7.570;2023-04-06T05:56:46;10.93;;;6.97;;
47329;SDS011;33060;50.178;7.570;2023-04-06T05:59:13;9.30;;;7.07;;
47329;SDS011;33060;50.178;7.570;2023-04-06T06:01:43;9.47;;;7.47;;
47329;SDS011;33060;50.178;7.570;2023-04-06T06:04:13;10.50;;;7.13;;
47329;SDS011;33060;50.178;7.570;2023-04-06T06:06:40;10.87;;;7.57;;
47329;SDS011;33060;50.178;7.570;2023-04-06T06:09:12;10.53;;;7.47;;
47329;SDS011;33060;50.178;7.570;2023-04-06T06:11:45;12.17;;;7.83;;
47329;SDS011;33060;50.178;7.570;2023-04-06T06:14:14;9.57;;;7.80;;
47329;SDS011;33060;50.178;7.570;2023-04-06T06:16:42;10.13;;;7.23;;
47329;SDS011;33060;50.178;7.570;2023-04-06T06:19:11;10.40;;;7.10;;
47329;SDS011;33060;50.178;7.570;2023-04-06T06:21:38;9.23;;;6.70;;
47329;SDS011;33060;50.178;7.570;2023-04-06T06:24:06;10.73;;;7.43;;
47329;SDS011;33060;50.178;7.570;2023-04-06T06:26:33;10.17;;;7.53;;
47329;SDS011;33060;50.178;7.570;2023-04-06T06:29:03;10.43;;;7.37;;
47329;SDS011;33060;50.178;7.570;2023-04-06T06:31:34;9.90;;;7.07;;
47329;SDS011;33060;50.178;7.570;2023-04-06T06:34:02;9.83;;;7.83;;
47329;SDS011;33060;50.178;7.570;2023-04-06T06:36:30;11.07;;;7.47;;
47329;SDS011;33060;50.178;7.570;2023-04-06T06:38:58;10.50;;;7.63;;
47329;SDS011;33060;50.178;7.570;2023-04-06T06:41:25;11.23;;;8.10;;
47329;SDS011;33060;50.178;7.570;2023-04-06T06:43:53;10.47;;;6.97;;
47329;SDS011;33060;50.178;7.570;2023-04-06T06:46:20;12.60;;;7.17;;
47329;SDS011;33060;50.178;7.570;2023-04-06T06:48:47;11.23;;;7.20;;
47329;SDS011;33060;50.178;7.570;2023-04-06T06:51:14;11.30;;;7.47;;
47329;SDS011;33060;50.178;7.570;2023-04-06T06:53:41;10.83;;;6.70;;
47329;SDS011;33060;50.178;7.570;2023-04-06T06:56:07;9.97;;;6.83;;
47329;SDS011;33060;50.178;7.570;2023-04-06T06:58:34;10.97;;;7.13;;
47329;SDS011;33060;50.178;7.570;2023-04-06T07:01:01;11.90;;;6.40;;
47329;SDS011;33060;50.178;7.570;2023-04-06T07:03:29;11.47;;;6.70;;
47329;SDS011;33060;50.178;7.570;2023-04-06T07:05:57;11.23;;;7.10;;
47329;SDS011;33060;50.178;7.570;2023-04-06T07:08:24;9.77;;;7.03;;
47329;SDS011;33060;50.178;7.570;2023-04-06T07:10:51;12.00;;;7.57;;
47329;SDS011;33060;50.178;7.570;2023-04-06T07:13:19;9.50;;;6.47;;
47329;SDS011;33060;50.178;7.570;2023-04-06T07:15:52;11.10;;;6.93;;
47329;SDS011;33060;50.178;7.570;2023-04-06T07:18:18;14.27;;;7.20;;
47329;SDS011;33060;50.178;7.570;2023-04-06T07:20:46;10.20;;;7.43;;
47329;SDS011;33060;50.178;7.570;2023-04-06T07:23:14;11.33;;;6.97;;
47329;SDS011;33060;50.178;7.570;2023-04-06T07:25:41;9.10;;;6.57;;
47329;SDS011;33060;50.178;7.570;2023-04-06T07:28:08;9.30;;;7.07;;
47329;SDS011;33060;50.178;7.570;2023-04-06T07:30:36;11.97;;;7.90;;
47329;SDS011;33060;50.178;7.570;2023-04-06T07:33:04;14.27;;;8.00;;
47329;SDS011;33060;50.178;7.570;2023-04-06T07:35:34;10.73;;;7.37;;
47329;SDS011;33060;50.178;7.570;2023-04-06T07:38:01;10.13;;;7.10;;
47329;SDS011;33060;50.178;7.570;2023-04-06T07:40:29;10.63;;;7.27;;
47329;SDS011;33060;50.178;7.570;2023-04-06T07:42:58;11.33;;;7.30;;
47329;SDS011;33060;50.178;7.570;2023-04-06T07:45:24;10.70;;;7.43;;
47329;SDS011;33060;50.178;7.570;2023-04-06T07:47:52;10.33;;;7.07;;
47329;SDS011;33060;50.178;7.570;2023-04-06T07:50:19;10.10;;;6.93;;
47329;SDS011;33060;50.178;7.570;2023-04-06T07:52:46;10.50;;;7.30;;
47329;SDS011;33060;50.178;7.570;2023-04-06T07:55:14;10.60;;;6.93;;
47329;SDS011;33060;50.178;7.570;2023-04-06T07:57:40;10.07;;;7.50;;
47329;SDS011;33060;50.178;7.570;2023-04-06T08:00:07;9.90;;;6.77;;
47329;SDS011;33060;50.178;7.570;2023-04-06T08:02:38;10.67;;;7.50;;
47329;SDS011;33060;50.178;7.570;2023-04-06T08:05:06;10.33;;;7.30;;
47329;SDS011;33060;50.178;7.570;2023-04-06T08:07:33;10.93;;;8.00;;
47329;SDS011;33060;50.178;7.570;2023-04-06T08:10:00;10.40;;;7.23;;
47329;SDS011;33060;50.178;7.570;2023-04-06T08:12:27;9.37;;;6.93;;
47329;SDS011;33060;50.178;7.570;2023-04-06T08:14:53;12.40;;;8.10;;
47329;SDS011;33060;50.178;7.570;2023-04-06T08:17:20;12.10;;;8.03;;
47329;SDS011;33060;50.178;7.570;2023-04-06T08:19:47;12.60;;;7.97;;
47329;SDS011;33060;50.178;7.570;2023-04-06T08:22:13;13.27;;;8.47;;
47329;SDS011;33060;50.178;7.570;2023-04-06T08:24:40;14.90;;;8.23;;
47329;SDS011;33060;50.178;7.570;2023-04-06T08:27:07;12.40;;;8.20;;
47329;SDS011;33060;50.178;7.570;2023-04-06T08:29:34;12.73;;;8.37;;
47329;SDS011;33060;50.178;7.570;2023-04-06T08:32:00;12.20;;;8.20;;
47329;SDS011;33060;50.178;7.570;2023-04-06T08:34:32;11.50;;;8.37;;
47329;SDS011;33060;50.178;7.570;2023-04-06T08:36:59;12.95;;;8.25;;
47329;SDS011;33060;50.178;7.570;2023-04-06T08:39:26;13.40;;;8.77;;
47329;SDS011;33060;50.178;7.570;2023-04-06T08:41:54;12.70;;;8.37;;
47329;SDS011;33060;50.178;7.570;2023-04-06T08:44:23;11.45;;;8.80;;
47329;SDS011;33060;50.178;7.570;2023-04-06T08:46:50;12.23;;;8.52;;
47329;SDS011;33060;50.178;7.570;2023-04-06T08:49:19;12.05;;;7.72;;
47329;SDS011;33060;50.178;7.570;2023-04-06T08:51:46;11.23;;;7.60;;
47329;SDS011;33060;50.178;7.570;2023-04-06T08:54:13;13.15;;;8.18;;
47329;SDS011;33060;50.178;7.570;2023-04-06T08:56:40;11.90;;;8.45;;
47329;SDS011;33060;50.178;7.570;2023-04-06T08:59:07;12.50;;;7.97;;
47329;SDS011;33060;50.178;7.570;2023-04-06T09:01:39;11.98;;;8.38;;
47329;SDS011;33060;50.178;7.570;2023-04-06T09:04:10;18.98;;;8.93;;
47329;SDS011;33060;50.178;7.570;2023-04-06T09:06:38;12.82;;;8.48;;
47329;SDS011;33060;50.178;7.570;2023-04-06T09:09:07;9.73;;;7.30;;
47329;SDS011;33060;50.178;7.570;2023-04-06T09:11:47;9.52;;;7.70;;
47329;SDS011;33060;50.178;7.570;2023-04-06T09:14:15;12.20;;;8.57;;
47329;SDS011;33060;50.178;7.570;2023-04-06T09:16:43;11.55;;;8.60;;
47329;SDS011;33060;50.178;7.570;2023-04-06T09:19:11;11.65;;;8.05;;
47329;SDS011;33060;50.178;7.570;2023-04-06T09:21:38;12.05;;;8.20;;
47329;SDS011;33060;50.178;7.570;2023-04-06T09:24:06;10.93;;;7.60;;
47329;SDS011;33060;50.178;7.570;2023-04-06T09:26:44;10.38;;;7.88;;
47329;SDS011;33060;50.178;7.570;2023-04-06T09:29:23;11.40;;;8.15;;
47329;SDS011;33060;50.178;7.570;2023-04-06T09:32:01;11.80;;;7.97;;
47329;SDS011;33060;50.178;7.570;2023-04-06T09:34:32;11.18;;;7.88;;
47329;SDS011;33060;50.178;7.570;2023-04-06T09:36:59;11.43;;;7.55;;
47329;SDS011;33060;50.178;7.570;2023-04-06T09:39:26;11.80;;;7.70;;
47329;SDS011;33060;50.178;7.570;2023-04-06T09:41:53;10.75;;;7.90;;
47329;SDS011;33060;50.178;7.570;2023-04-06T09:44:20;8.90;;;6.95;;
47329;SDS011;33060;50.178;7.570;2023-04-06T09:46:47;9.50;;;7.18;;
47329;SDS011;33060;50.178;7.570;2023-04-06T09:49:28;9.48;;;6.95;;
47329;SDS011;33060;50.178;7.570;2023-04-06T09:51:59;9.65;;;7.25;;
47329;SDS011;33060;50.178;7.570;2023-04-06T09:54:28;11.38;;;7.57;;
47329;SDS011;33060;50.178;7.570;2023-04-06T09:59:58;10.20;;;7.22;;
47329;SDS011;33060;50.178;7.570;2023-04-06T10:05:57;9.73;;;6.97;;
47329;SDS011;33060;50.178;7.570;2023-04-06T10:08:27;8.98;;;6.95;;
47329;SDS011;33060;50.178;7.570;2023-04-06T10:10:58;9.48;;;6.38;;
47329;SDS011;33060;50.178;7.570;2023-04-06T10:13:25;9.73;;;7.15;;
47329;SDS011;33060;50.178;7.570;2023-04-06T10:15:52;8.98;;;6.70;;
47329;SDS011;33060;50.178;7.570;2023-04-06T10:18:20;10.88;;;7.82;;
47329;SDS011;33060;50.178;7.570;2023-04-06T10:21:01;8.75;;;7.03;;
47329;SDS011;33060;50.178;7.570;2023-04-06T10:23:34;12.30;;;6.95;;
47329;SDS011;33060;50.178;7.570;2023-04-06T10:26:17;10.40;;;7.32;;
47329;SDS011;33060;50.178;7.570;2023-04-06T10:28:47;10.10;;;6.55;;
47329;SDS011;33060;50.178;7.570;2023-04-06T10:31:15;9.38;;;6.72;;
47329;SDS011;33060;50.178;7.570;2023-04-06T10:33:56;9.32;;;7.57;;
47329;SDS011;33060;50.178;7.570;2023-04-06T10:36:24;9.10;;;6.88;;
47329;SDS011;33060;50.178;7.570;2023-04-06T10:38:56;11.43;;;7.60;;
47329;SDS011;33060;50.178;7.570;2023-04-06T10:41:44;9.77;;;7.50;;
47329;SDS011;33060;50.178;7.570;2023-04-06T10:44:25;10.38;;;6.65;;
47329;SDS011;33060;50.178;7.570;2023-04-06T10:46:55;10.65;;;7.57;;
47329;SDS011;33060;50.178;7.570;2023-04-06T10:49:24;8.02;;;6.88;;
47329;SDS011;33060;50.178;7.570;2023-04-06T10:51:53;12.10;;;7.95;;
47329;SDS011;33060;50.178;7.570;2023-04-06T10:54:21;9.48;;;6.80;;
47329;SDS011;33060;50.178;7.570;2023-04-06T10:56:49;9.77;;;6.82;;
47329;SDS011;33060;50.178;7.570;2023-04-06T10:59:20;10.05;;;7.20;;
47329;SDS011;33060;50.178;7.570;2023-04-06T11:01:48;8.48;;;6.63;;
47329;SDS011;33060;50.178;7.570;2023-04-06T11:04:16;8.50;;;7.20;;
47329;SDS011;33060;50.178;7.570;2023-04-06T11:06:48;9.02;;;6.88;;
47329;SDS011;33060;50.178;7.570;2023-04-06T11:09:28;8.35;;;6.90;;
47329;SDS011;33060;50.178;7.570;2023-04-06T11:11:57;10.85;;;8.27;;
47329;SDS011;33060;50.178;7.570;2023-04-06T11:14:24;9.15;;;7.15;;
47329;SDS011;33060;50.178;7.570;2023-04-06T11:16:53;10.63;;;7.90;;
47329;SDS011;33060;50.178;7.570;2023-04-06T11:19:20;13.55;;;7.95;;
47329;SDS011;33060;50.178;7.570;2023-04-06T11:21:47;8.93;;;7.03;;
47329;SDS011;33060;50.178;7.570;2023-04-06T11:24:15;9.63;;;7.10;;
47329;SDS011;33060;50.178;7.570;2023-04-06T11:26:44;9.27;;;7.35;;
47329;SDS011;33060;50.178;7.570;2023-04-06T11:29:12;10.95;;;7.93;;
47329;SDS011;33060;50.178;7.570;2023-04-06T11:31:44;9.48;;;7.53;;
47329;SDS011;33060;50.178;7.570;2023-04-06T11:34:12;10.77;;;7.57;;
47329;SDS011;33060;50.178;7.570;2023-04-06T11:36:43;11.60;;;7.80;;
47329;SDS011;33060;50.178;7.570;2023-04-06T11:39:12;9.55;;;7.40;;
47329;SDS011;33060;50.178;7.570;2023-04-06T11:41:39;12.13;;;7.97;;
47329;SDS011;33060;50.178;7.570;2023-04-06T11:44:07;10.20;;;7.47;;
47329;SDS011;33060;50.178;7.570;2023-04-06T11:46:33;8.85;;;7.82;;
47329;SDS011;33060;50.178;7.570;2023-04-06T11:49:01;11.05;;;7.38;;
47329;SDS011;33060;50.178;7.570;2023-04-06T11:51:28;10.10;;;7.85;;
47329;SDS011;33060;50.178;7.570;2023-04-06T11:53:55;10.18;;;8.13;;
47329;SDS011;33060;50.178;7.570;2023-04-06T11:56:26;10.93;;;7.75;;
47329;SDS011;33060;50.178;7.570;2023-04-06T11:58:54;8.65;;;7.13;;
47329;SDS011;33060;50.178;7.570;2023-04-06T12:01:23;11.05;;;7.57;;
47329;SDS011;33060;50.178;7.570;2023-04-06T12:03:50;9.15;;;7.82;;
47329;SDS011;33060;50.178;7.570;2023-04-06T12:06:18;9.65;;;8.40;;
47329;SDS011;33060;50.178;7.570;2023-04-06T12:08:45;9.10;;;7.68;;
47329;SDS011;33060;50.178;7.570;2023-04-06T12:11:11;10.45;;;7.93;;
47329;SDS011;33060;50.178;7.570;2023-04-06T12:13:38;9.77;;;7.90;;
47329;SDS011;33060;50.178;7.570;2023-04-06T12:16:05;8.52;;;7.57;;
47329;SDS011;33060;50.178;7.570;2023-04-06T12:18:32;9.45;;;7.55;;
47329;SDS011;33060;50.178;7.570;2023-04-06T12:20:58;9.68;;;7.60;;
47329;SDS011;33060;50.178;7.570;2023-04-06T12:23:25;8.55;;;7.20;;
47329;SDS011;33060;50.178;7.570;2023-04-06T12:25:52;11.68;;;7.32;;
47329;SDS011;33060;50.178;7.570;2023-04-06T12:28:19;10.45;;;7.93;;
47329;SDS011;33060;50.178;7.570;2023-04-06T12:30:50;8.57;;;6.80;;
47329;SDS011;33060;50.178;7.570;2023-04-06T12:33:17;9.85;;;7.75;;
47329;SDS011;33060;50.178;7.570;2023-04-06T12:35:44;9.27;;;7.63;;
47329;SDS011;33060;50.178;7.570;2023-04-06T12:38:10;9.48;;;7.38;;
47329;SDS011;33060;50.178;7.570;2023-04-06T12:40:37;10.60;;;7.70;;
47329;SDS011;33060;50.178;7.570;2023-04-06T12:43:04;10.95;;;7.22;;
47329;SDS011;33060;50.178;7.570;2023-04-06T12:45:31;8.85;;;6.85;;
47329;SDS011;33060;50.178;7.570;2023-04-06T12:47:58;10.50;;;7.18;;
47329;SDS011;33060;50.178;7.570;2023-04-06T12:50:25;8.90;;;7.22;;
47329;SDS011;33060;50.178;7.570;2023-04-06T12:52:52;10.13;;;7.65;;
47329;SDS011;33060;50.178;7.570;2023-04-06T12:55:19;9.98;;;7.50;;
47329;SDS011;33060;50.178;7.570;2023-04-06T12:57:46;10.75;;;8.25;;
47329;SDS011;33060;50.178;7.570;2023-04-06T13:00:13;10.07;;;8.10;;
47329;SDS011;33060;50.178;7.570;2023-04-06T13:02:41;10.40;;;7.78;;
47329;SDS011;33060;50.178;7.570;2023-04-06T13:05:33;10.27;;;8.13;;
47329;SDS011;33060;50.178;7.570;2023-04-06T13:07:59;10.63;;;7.90;;
47329;SDS011;33060;50.178;7.570;2023-04-06T13:10:26;11.30;;;7.85;;
47329;SDS011;33060;50.178;7.570;2023-04-06T13:12:52;8.75;;;7.43;;
47329;SDS011;33060;50.178;7.570;2023-04-06T13:15:19;9.20;;;7.43;;
47329;SDS011;33060;50.178;7.570;2023-04-06T13:17:46;11.50;;;8.25;;
47329;SDS011;33060;50.178;7.570;2023-04-06T13:20:13;11.30;;;8.20;;
47329;SDS011;33060;50.178;7.570;2023-04-06T13:22:39;10.70;;;8.20;;
47329;SDS011;33060;50.178;7.570;2023-04-06T13:25:06;10.55;;;7.90;;
47329;SDS011;33060;50.178;7.570;2023-04-06T13:27:33;10.25;;;7.53;;
47329;SDS011;33060;50.178;7.570;2023-04-06T13:30:04;9.13;;;7.45;;
47329;SDS011;33060;50.178;7.570;2023-04-06T13:32:32;11.25;;;6.95;;
47329;SDS011;33060;50.178;7.570;2023-04-06T13:34:59;11.75;;;7.88;;
47329;SDS011;33060;50.178;7.570;2023-04-06T13:37:26;9.77;;;7.65;;
47329;SDS011;33060;50.178;7.570;2023-04-06T13:39:53;9.10;;;7.55;;
47329;SDS011;33060;50.178;7.570;2023-04-06T13:42:19;9.63;;;7.15;;
47329;SDS011;33060;50.178;7.570;2023-04-06T13:44:46;10.70;;;7.40;;
47329;SDS011;33060;50.178;7.570;2023-04-06T13:47:13;7.80;;;5.72;;
47329;SDS011;33060;50.178;7.570;2023-04-06T13:49:39;8.77;;;6.25;;
47329;SDS011;33060;50.178;7.570;2023-04-06T13:52:06;8.32;;;6.55;;
47329;SDS011;33060;50.178;7.570;2023-04-06T13:54:33;8.60;;;6.63;;
47329;SDS011;33060;50.178;7.570;2023-04-06T13:57:00;8.18;;;6.53;;
47329;SDS011;33060;50.178;7.570;2023-04-06T13:59:36;7.75;;;6.15;;
47329;SDS011;33060;50.178;7.570;2023-04-06T14:02:04;8.20;;;6.10;;
47329;SDS011;33060;50.178;7.570;2023-04-06T14:04:32;7.35;;;6.10;;
47329;SDS011;33060;50.178;7.570;2023-04-06T14:07:00;6.68;;;5.75;;
47329;SDS011;33060;50.178;7.570;2023-04-06T14:09:28;9.27;;;6.00;;
47329;SDS011;33060;50.178;7.570;2023-04-06T14:11:55;6.90;;;5.18;;
47329;SDS011;33060;50.178;7.570;2023-04-06T14:14:22;6.32;;;5.47;;
47329;SDS011;33060;50.178;7.570;2023-04-06T14:16:49;6.13;;;5.53;;
47329;SDS011;33060;50.178;7.570;2023-04-06T14:19:16;9.00;;;6.40;;
47329;SDS011;33060;50.178;7.570;2023-04-06T14:21:44;7.57;;;6.45;;
47329;SDS011;33060;50.178;7.570;2023-04-06T14:24:11;9.68;;;7.80;;
47329;SDS011;33060;50.178;7.570;2023-04-06T14:26:40;8.25;;;6.72;;
47329;SDS011;33060;50.178;7.570;2023-04-06T14:29:08;8.40;;;6.88;;
47329;SDS011;33060;50.178;7.570;2023-04-06T14:31:35;7.38;;;6.53;;
47329;SDS011;33060;50.178;7.570;2023-04-06T14:34:03;10.40;;;7.32;;
47329;SDS011;33060;50.178;7.570;2023-04-06T14:36:33;8.50;;;7.60;;
47329;SDS011;33060;50.178;7.570;2023-04-06T14:39:04;9.75;;;7.43;;
47329;SDS011;33060;50.178;7.570;2023-04-06T14:41:32;9.20;;;7.40;;
47329;SDS011;33060;50.178;7.570;2023-04-06T14:44:00;8.27;;;7.03;;
47329;SDS011;33060;50.178;7.570;2023-04-06T14:46:27;9.40;;;7.85;;
47329;SDS011;33060;50.178;7.570;2023-04-06T14:48:54;7.88;;;7.03;;
47329;SDS011;33060;50.178;7.570;2023-04-06T14:51:24;9.80;;;8.00;;
47329;SDS011;33060;50.178;7.570;2023-04-06T14:53:51;10.60;;;8.13;;
47329;SDS011;33060;50.178;7.570;2023-04-06T14:56:19;9.75;;;7.63;;
47329;SDS011;33060;50.178;7.570;2023-04-06T14:58:47;8.25;;;6.93;;
47329;SDS011;33060;50.178;7.570;2023-04-06T15:01:14;9.35;;;7.65;;